KABI

Abilene Regional Airport

Airport
ICAO code
KABI
IATA Code
ABI
Summary
ICAO Region
NAM
ICAO Territory
Location

Abilene, Texas,

Serving
Abilene
Elevation
1791 ft
Coordinates
32° 24' 40" N , 99° 40' 54" W
KCC
Cfa
Airport LOS
Parallel Runway Operation
Metar
Observation
KABI 081852Z VRB03KT 10SM SCT075 SCT090 35/16 A3008 RMK AO2 SLP153 T03500161
Station
Abilene, Abilene Regional Airport
Date/Time
2022-08-08 18:52:00
Wind speed
03 kts
Lowest cloud amount
scattered clouds
Temperature
35°C
Dew point
16.1°C
Humidity
32%
Weather condition
n/a

Description

Abilene Regional Airport is a public use airport located 5 km southeast of the central business district of Abilene, in Taylor County, Texas.

Climatology

Humid “subtropical” climate (Köppen climate classification Cfa) - characterized by hot, humid summers and cool winters. Significant amounts of precipitation occur in all seasons in most areas. Winter rainfall (and sometimes snowfall) is associated with large storms that the westerlies steer from west to east. Most summer rainfall occurs during thunderstorms and occasional tropical storms (hurricanes).

Airport map

Aerial View

SKYbrary Partners:

Safety knowledge contributed by: